createdAt,value
2018-03-30T00:02:17.476Z,90.90
2018-03-30T00:05:40.921Z,90.80
2018-03-30T00:09:04.200Z,90.80
2018-03-30T00:12:27.468Z,90.80
2018-03-30T00:15:50.748Z,90.80
2018-03-30T00:19:14.054Z,91.00
2018-03-30T00:22:37.418Z,91.00
2018-03-30T00:26:00.732Z,91.00
2018-03-30T00:29:24.758Z,91.40
2018-03-30T00:32:48.060Z,91.00
2018-03-30T00:36:11.329Z,91.00
2018-03-30T00:39:34.659Z,90.90
2018-03-30T00:42:57.884Z,91.10
2018-03-30T00:46:22.000Z,91.20
2018-03-30T00:49:45.288Z,91.20
2018-03-30T00:53:27.441Z,91.10
2018-03-30T00:56:51.550Z,91.40
2018-03-30T01:00:14.810Z,91.40
2018-03-30T01:03:38.902Z,91.40
2018-03-30T01:07:02.200Z,91.40
2018-03-30T01:10:25.487Z,91.20
2018-03-30T01:13:48.758Z,91.30
2018-03-30T01:17:12.050Z,91.30
2018-03-30T01:20:35.372Z,91.30
2018-03-30T01:23:59.419Z,91.50
2018-03-30T01:27:22.698Z,91.40
2018-03-30T01:30:45.992Z,91.50
2018-03-30T01:34:09.298Z,91.50
2018-03-30T01:37:32.640Z,91.50
2018-03-30T01:40:55.910Z,91.50
2018-03-30T01:44:19.184Z,91.50
2018-03-30T01:47:43.293Z,91.20
2018-03-30T01:51:06.552Z,91.20
2018-03-30T01:54:29.859Z,91.50
2018-03-30T01:57:53.137Z,91.80
2018-03-30T02:01:16.414Z,91.90
2018-03-30T02:04:39.692Z,92.00
2018-03-30T02:08:02.974Z,92.10
2018-03-30T02:11:26.257Z,91.70
2018-03-30T02:14:49.566Z,91.30
2018-03-30T02:18:12.846Z,91.30
2018-03-30T02:21:36.134Z,91.50
2018-03-30T02:24:59.405Z,91.30
2018-03-30T02:28:22.687Z,91.30
2018-03-30T02:31:46.035Z,91.60
2018-03-30T02:35:10.124Z,92.00
2018-03-30T02:38:33.404Z,92.00
2018-03-30T02:41:57.540Z,91.90
2018-03-30T02:45:20.873Z,91.80
2018-03-30T02:48:44.227Z,92.00
2018-03-30T02:52:07.518Z,92.00
2018-03-30T02:55:30.896Z,92.10
2018-03-30T02:58:54.339Z,92.10
2018-03-30T03:02:18.381Z,91.80
2018-03-30T03:05:41.673Z,91.80
2018-03-30T03:09:04.966Z,91.90
2018-03-30T03:12:28.315Z,92.30
2018-03-30T03:15:51.680Z,92.40
2018-03-30T03:19:15.033Z,92.80
2018-03-30T03:22:38.360Z,93.10
2018-03-30T03:26:01.648Z,93.60
2018-03-30T03:29:24.944Z,93.20
2018-03-30T03:32:48.315Z,92.90
2018-03-30T03:36:11.662Z,93.20
2018-03-30T03:39:34.926Z,93.60
2018-03-30T03:42:59.034Z,94.00
2018-03-30T03:46:22.382Z,94.00
2018-03-30T03:49:45.682Z,94.20
2018-03-30T03:53:11.583Z,93.90
2018-03-30T03:56:35.638Z,93.70
2018-03-30T03:59:58.976Z,93.70
2018-03-30T04:03:23.020Z,94.10
2018-03-30T04:06:46.336Z,94.10
2018-03-30T04:10:09.661Z,94.20
2018-03-30T04:13:32.948Z,94.30
2018-03-30T04:16:56.256Z,94.00
2018-03-30T04:20:19.618Z,94.00
2018-03-30T04:23:43.954Z,93.90
2018-03-30T04:27:07.258Z,94.20
2018-03-30T04:30:30.596Z,93.40
2018-03-30T04:33:53.886Z,93.40
2018-03-30T04:37:17.172Z,93.20
2018-03-30T04:40:40.005Z,93.00
2018-03-30T04:44:03.300Z,92.90
2018-03-30T04:47:26.147Z,92.70
2018-03-30T04:50:49.500Z,92.20
2018-03-30T04:54:12.383Z,92.50
2018-03-30T04:57:35.240Z,92.60
2018-03-30T05:00:58.862Z,92.50
2018-03-30T05:04:21.718Z,92.50
2018-03-30T05:07:44.550Z,92.30
2018-03-30T05:11:07.400Z,91.80
2018-03-30T05:14:30.240Z,91.20
2018-03-30T05:17:53.090Z,91.60
2018-03-30T05:21:15.940Z,91.90
2018-03-30T05:24:38.835Z,92.00
2018-03-30T05:28:02.429Z,92.70
2018-03-30T05:31:25.303Z,92.30
2018-03-30T05:34:48.142Z,93.00
2018-03-30T05:38:10.967Z,92.30
2018-03-30T05:41:33.829Z,92.50
2018-03-30T05:44:56.685Z,92.40
2018-03-30T05:48:19.508Z,92.20
2018-03-30T05:51:42.371Z,92.00
2018-03-30T05:55:05.353Z,92.60
2018-03-30T05:58:28.197Z,92.90
2018-03-30T06:01:51.177Z,91.70
2018-03-30T06:05:14.131Z,91.70
2018-03-30T06:08:37.007Z,91.70
2018-03-30T06:12:00.623Z,91.40
2018-03-30T06:15:23.462Z,91.70
2018-03-30T06:18:47.132Z,92.00
2018-03-30T06:22:10.002Z,92.00
2018-03-30T06:25:32.909Z,92.40
2018-03-30T06:28:55.897Z,91.80
2018-03-30T06:32:20.664Z,92.00
2018-03-30T06:35:44.598Z,91.80
2018-03-30T06:39:08.232Z,91.90
2018-03-30T06:42:31.236Z,91.70
2018-03-30T06:45:54.885Z,91.50
2018-03-30T06:49:17.771Z,91.50
2018-03-30T06:52:40.640Z,91.60
2018-03-30T06:56:03.557Z,91.20
2018-03-30T06:59:26.554Z,91.80
2018-03-30T07:02:49.545Z,91.40
2018-03-30T07:06:12.385Z,91.40
2018-03-30T07:09:35.484Z,91.00
2018-03-30T07:13:00.099Z,90.40
2018-03-30T07:16:23.134Z,90.40
2018-03-30T07:19:46.750Z,90.40
2018-03-30T07:23:09.684Z,90.00
2018-03-30T07:26:32.524Z,89.40
2018-03-30T07:29:55.516Z,90.10
2018-03-30T07:33:18.352Z,89.40
2018-03-30T07:36:41.249Z,89.50
2018-03-30T07:40:05.073Z,88.80
2018-03-30T07:43:27.924Z,88.70
2018-03-30T07:46:50.779Z,89.60
2018-03-30T07:50:13.636Z,90.10
2018-03-30T07:53:36.574Z,89.60
2018-03-30T07:57:00.176Z,89.20
2018-03-30T08:00:23.835Z,87.40
2018-03-30T08:03:46.689Z,87.40
2018-03-30T08:07:09.528Z,87.90
2018-03-30T08:10:32.378Z,88.50
2018-03-30T08:13:55.223Z,87.70
2018-03-30T08:17:18.057Z,86.80
2018-03-30T08:20:41.730Z,87.80
2018-03-30T08:24:04.568Z,87.70
2018-03-30T08:27:27.425Z,87.80
2018-03-30T08:30:50.281Z,87.70
2018-03-30T08:34:13.185Z,87.10
2018-03-30T08:37:36.050Z,87.50
2018-03-30T08:40:58.895Z,87.80
2018-03-30T08:44:21.814Z,88.60
2018-03-30T08:47:44.666Z,88.30
2018-03-30T08:51:07.497Z,88.80
2018-03-30T08:54:30.338Z,89.00
2018-03-30T08:57:53.198Z,88.70
2018-03-30T09:01:16.055Z,88.10
2018-03-30T09:04:38.908Z,86.60
2018-03-30T09:08:01.764Z,87.00
2018-03-30T09:11:24.651Z,85.90
2018-03-30T09:14:47.532Z,86.60
2018-03-30T09:18:10.402Z,86.60
2018-03-30T09:21:34.043Z,85.20
2018-03-30T09:24:57.678Z,84.20
2018-03-30T09:28:21.303Z,85.00
2018-03-30T09:31:44.170Z,85.00
2018-03-30T09:35:07.073Z,85.30
2018-03-30T09:38:32.485Z,84.70
2018-03-30T09:41:55.399Z,83.20
2018-03-30T09:45:18.331Z,83.80
2018-03-30T09:48:41.966Z,82.50
2018-03-30T09:52:08.922Z,82.40
2018-03-30T09:55:31.936Z,82.10
2018-03-30T09:58:54.789Z,80.10
2018-03-30T10:02:17.645Z,80.30
2018-03-30T10:05:40.555Z,80.60
2018-03-30T10:09:03.424Z,81.00
2018-03-30T10:12:26.257Z,80.00
2018-03-30T10:15:49.117Z,80.00
2018-03-30T10:19:11.932Z,80.10
2018-03-30T10:22:34.814Z,79.90
2018-03-30T10:25:58.468Z,78.10
2018-03-30T10:33:12.018Z,78.30
2018-03-30T10:36:35.648Z,77.30
2018-03-30T10:39:58.507Z,77.20
2018-03-30T10:43:22.123Z,77.30
2018-03-30T10:46:44.995Z,77.20
2018-03-30T10:50:07.868Z,76.90
2018-03-30T10:53:30.888Z,76.60
2018-03-30T10:56:53.733Z,76.60
2018-03-30T11:00:17.610Z,76.30
2018-03-30T11:03:40.493Z,76.60
2018-03-30T11:07:04.111Z,75.70
2018-03-30T11:10:27.007Z,75.70
2018-03-30T11:13:49.880Z,76.20
2018-03-30T11:17:12.704Z,76.40
2018-03-30T11:20:35.558Z,75.90
2018-03-30T11:23:58.408Z,76.40
2018-03-30T11:27:21.284Z,75.40
2018-03-30T11:30:44.187Z,74.10
2018-03-30T11:34:07.049Z,73.60
2018-03-30T11:37:30.755Z,73.30
2018-03-30T11:40:53.621Z,73.40
2018-03-30T11:44:16.540Z,71.70
2018-03-30T11:47:39.475Z,71.40
2018-03-30T11:51:04.118Z,71.00
2018-03-30T11:54:27.112Z,70.10
2018-03-30T11:57:50.003Z,69.30
2018-03-30T12:01:12.882Z,68.80
2018-03-30T12:04:35.869Z,68.50
2018-03-30T12:07:58.722Z,69.50
2018-03-30T12:11:21.588Z,69.50
2018-03-30T12:14:45.242Z,69.60
2018-03-30T12:18:09.924Z,69.70
2018-03-30T12:21:32.793Z,69.70
2018-03-30T12:24:55.793Z,68.50
2018-03-30T12:28:18.648Z,67.30
2018-03-30T12:31:41.565Z,64.30
2018-03-30T12:35:04.423Z,62.80
2018-03-30T12:38:27.420Z,61.00
2018-03-30T12:41:50.315Z,59.70
2018-03-30T12:45:13.172Z,59.00
2018-03-30T12:48:36.031Z,57.90
2018-03-30T12:51:58.861Z,58.40
2018-03-30T12:55:21.915Z,57.50
2018-03-30T12:58:44.980Z,56.90
2018-03-30T13:02:07.923Z,56.80
2018-03-30T13:05:30.787Z,56.00
2018-03-30T13:08:54.563Z,55.10
2018-03-30T13:12:17.438Z,55.60
2018-03-30T13:15:41.180Z,56.00
2018-03-30T13:19:04.119Z,56.00
2018-03-30T13:22:26.969Z,55.90
2018-03-30T13:25:49.830Z,56.40
2018-03-30T13:29:12.664Z,54.10
2018-03-30T13:32:35.562Z,54.50
2018-03-30T13:35:59.133Z,55.10
2018-03-30T13:39:22.002Z,55.10
2018-03-30T13:42:44.832Z,54.80
2018-03-30T13:46:07.689Z,55.00
2018-03-30T13:49:30.541Z,54.90
2018-03-30T13:52:53.450Z,54.80
2018-03-30T13:56:18.064Z,54.60
2018-03-30T13:59:43.532Z,54.50
2018-03-30T14:07:49.224Z,54.20
2018-03-30T14:11:13.032Z,54.20
2018-03-30T14:14:36.639Z,53.30
2018-03-30T14:18:05.111Z,53.30
2018-03-30T14:21:31.801Z,52.90
2018-03-30T14:24:57.494Z,52.60
2018-03-30T14:32:18.651Z,52.10
2018-03-30T14:35:49.399Z,53.40
2018-03-30T14:39:16.832Z,53.80
2018-03-30T14:42:40.699Z,53.80
2018-03-30T14:50:00.022Z,57.30
2018-03-30T14:53:23.854Z,59.30
2018-03-30T14:56:48.685Z,61.30
2018-03-30T15:00:19.452Z,61.60
2018-03-30T15:03:43.025Z,60.80
2018-03-30T15:07:05.876Z,61.30
2018-03-30T15:14:46.605Z,61.20
2018-03-30T15:18:21.055Z,62.20
2018-03-30T15:21:45.568Z,62.10
2018-03-30T15:25:11.091Z,62.00
2018-03-30T15:28:34.746Z,61.90
2018-03-30T15:32:08.413Z,64.90
2018-03-30T15:35:31.307Z,65.00
2018-03-30T15:38:54.921Z,68.20
2018-03-30T15:42:17.923Z,68.10
2018-03-30T15:45:45.658Z,68.10
2018-03-30T15:49:09.385Z,69.60
2018-03-30T15:52:33.201Z,69.10
2018-03-30T15:55:56.025Z,69.10
2018-03-30T15:59:18.903Z,69.30
2018-03-30T16:02:41.749Z,69.00
2018-03-30T16:06:04.622Z,69.00
2018-03-30T16:09:28.999Z,67.70
2018-03-30T16:12:56.290Z,68.30
2018-03-30T16:16:19.898Z,67.90
2018-03-30T16:19:42.203Z,67.70
2018-03-30T16:23:05.263Z,69.30
2018-03-30T16:26:28.569Z,70.30
2018-03-30T16:29:52.153Z,70.20
2018-03-30T16:33:14.533Z,70.90
2018-03-30T16:36:37.672Z,73.50
2018-03-30T16:40:00.779Z,72.70
2018-03-30T16:43:23.102Z,72.70
2018-03-30T16:46:45.424Z,72.60
2018-03-30T16:50:08.613Z,73.30
2018-03-30T16:53:30.895Z,73.30
2018-03-30T16:56:53.979Z,75.90
2018-03-30T17:00:17.200Z,76.40
2018-03-30T17:03:39.575Z,76.30
2018-03-30T17:07:01.844Z,76.50
2018-03-30T17:10:24.196Z,77.70
2018-03-30T17:13:47.313Z,80.30
2018-03-30T17:17:09.584Z,80.20
2018-03-30T17:20:33.020Z,81.80
2018-03-30T17:23:56.145Z,84.60
2018-03-30T17:27:18.405Z,84.50
2018-03-30T17:30:40.724Z,86.20
2018-03-30T17:34:03.068Z,86.90
2018-03-30T17:37:25.361Z,87.00
2018-03-30T17:40:47.638Z,87.20
2018-03-30T17:44:10.022Z,84.60
2018-03-30T17:47:32.322Z,83.10
2018-03-30T17:50:55.415Z,82.10
2018-03-30T17:54:17.715Z,82.00
2018-03-30T17:57:40.054Z,82.80
2018-03-30T18:01:02.401Z,83.80
2018-03-30T18:04:25.466Z,84.40
2018-03-30T18:07:47.959Z,84.30
2018-03-30T18:11:11.012Z,84.20
2018-03-30T18:14:34.080Z,86.40
2018-03-30T18:17:56.431Z,86.40
2018-03-30T18:21:19.490Z,87.00
2018-03-30T18:24:42.566Z,88.30
2018-03-30T18:28:05.684Z,87.30
2018-03-30T18:31:27.971Z,87.20
2018-03-30T18:34:51.027Z,87.70
2018-03-30T18:38:14.114Z,89.50
2018-03-30T18:41:37.181Z,89.80
2018-03-30T18:44:59.489Z,89.80
2018-03-30T18:48:21.767Z,89.80
2018-03-30T18:51:44.825Z,90.20
2018-03-30T18:55:07.140Z,89.90
2018-03-30T18:58:29.415Z,90.20
2018-03-30T19:01:51.692Z,89.30
2018-03-30T19:05:14.984Z,88.60
2018-03-30T19:08:37.332Z,88.00
2018-03-30T19:12:00.440Z,87.00
2018-03-30T19:15:22.708Z,87.00
2018-03-30T19:18:45.016Z,84.70
2018-03-30T19:22:08.074Z,86.20
2018-03-30T19:25:31.241Z,87.70
2018-03-30T19:29:09.909Z,87.60
2018-03-30T19:32:32.979Z,85.30
2018-03-30T19:35:56.034Z,84.80
2018-03-30T19:39:18.376Z,84.80
2018-03-30T19:42:41.458Z,83.90
2018-03-30T19:46:04.511Z,86.00
2018-03-30T19:49:27.566Z,86.60
2018-03-30T19:52:49.821Z,86.60
2018-03-30T19:56:12.107Z,86.20
2018-03-30T19:59:35.213Z,86.30
2018-03-30T20:02:57.492Z,86.30
2018-03-30T20:06:19.778Z,86.80
2018-03-30T20:09:42.241Z,86.00
2018-03-30T20:13:04.513Z,85.00
2018-03-30T20:16:26.795Z,82.80
2018-03-30T20:19:49.871Z,84.10
2018-03-30T20:23:12.966Z,82.30
2018-03-30T20:26:35.265Z,82.20
2018-03-30T20:29:58.340Z,85.50
2018-03-30T20:33:21.430Z,85.70
2018-03-30T20:36:43.733Z,85.60
2018-03-30T20:40:06.085Z,85.10
2018-03-30T20:43:29.136Z,84.40
2018-03-30T20:46:51.472Z,84.20
2018-03-30T20:50:13.742Z,84.50
2018-03-30T20:53:37.124Z,86.30
2018-03-30T20:57:00.283Z,85.50
2018-03-30T21:00:22.566Z,85.50
2018-03-30T21:03:44.856Z,86.90
2018-03-30T21:07:07.918Z,86.40
2018-03-30T21:10:30.982Z,86.20
2018-03-30T21:13:54.058Z,85.80
2018-03-30T21:17:17.096Z,84.50
2018-03-30T21:20:39.792Z,84.40
2018-03-30T21:24:02.314Z,85.30
2018-03-30T21:27:25.351Z,85.60
2018-03-30T21:30:47.623Z,85.40
2018-03-30T21:34:10.083Z,85.90
2018-03-30T21:37:32.398Z,87.00
2018-03-30T21:40:55.437Z,89.10
2018-03-30T21:44:17.803Z,89.10
2018-03-30T21:47:40.844Z,90.00
2018-03-30T21:51:03.275Z,89.80
2018-03-30T21:54:26.328Z,89.20
2018-03-30T21:57:48.761Z,89.00
2018-03-30T22:01:11.830Z,89.40
2018-03-30T22:04:34.876Z,89.50
2018-03-30T22:07:57.230Z,89.40
2018-03-30T22:11:20.298Z,89.60
2018-03-30T22:14:43.698Z,90.30
2018-03-30T22:18:05.991Z,90.20
2018-03-30T22:21:29.073Z,90.50
2018-03-30T22:24:51.368Z,90.40
2018-03-30T22:28:13.631Z,90.00
2018-03-30T22:31:35.898Z,90.30
2018-03-30T22:34:58.188Z,89.50
2018-03-30T22:38:21.227Z,88.80
2018-03-30T22:41:43.523Z,88.80
2018-03-30T22:45:06.802Z,89.30
2018-03-30T22:48:29.872Z,88.60
2018-03-30T22:51:52.976Z,89.00
2018-03-30T22:55:16.007Z,89.70
2018-03-30T22:58:39.070Z,90.20
2018-03-30T23:02:02.137Z,89.00
2018-03-30T23:05:25.173Z,90.00
2018-03-30T23:08:47.434Z,89.90
2018-03-30T23:12:09.711Z,89.50
2018-03-30T23:15:31.985Z,89.40
2018-03-30T23:18:54.251Z,90.20
2018-03-30T23:22:16.596Z,90.90
2018-03-30T23:25:38.922Z,90.30
2018-03-30T23:29:01.200Z,90.20
2018-03-30T23:32:23.544Z,90.40
2018-03-30T23:35:45.867Z,90.20
2018-03-30T23:39:08.127Z,90.60
2018-03-30T23:42:30.394Z,91.00
2018-03-30T23:45:52.673Z,91.50
2018-03-30T23:49:14.998Z,91.10
2018-03-30T23:52:37.266Z,90.70
2018-03-30T23:55:59.730Z,91.70
2018-03-30T23:59:22.041Z,90.60
